Time;durP1;ratioP1;P1;durP2;ratioP2;P2;SDS_P1;SDS_P2;PMS_P1;PMS_P2;Temp;Humidity;BMP_temperature;BMP_pressure;BME280_temperature;BME280_humidity;BME280_pressure;Samples;Min_cycle;Max_cycle;Signal;HPM_P1;HPM_P2
2021/03/18 00:01:21;;;;;;;12.65;7.32;;;;;;;0.13;90.23;99559.78;5000019;28;20081;-73
2021/03/18 00:03:48;;;;;;;17.13;8.60;;;;;;;0.17;90.19;99571.84;5002946;28;20503;-73
2021/03/18 00:06:14;;;;;;;11.48;7.35;;;;;;;0.18;90.32;99568.25;5029767;28;20057;-73
2021/03/18 00:08:40;;;;;;;16.75;7.32;;;;;;;0.16;89.76;99564.84;5009366;28;20453;-72
2021/03/18 00:11:09;;;;;;;15.05;8.10;;;;;;;0.06;90.02;99569.19;5019645;28;20383;-73
2021/03/18 00:13:36;;;;;;;15.45;8.13;;;;;;;0.03;90.08;99579.19;5025470;28;20061;-73
2021/03/18 00:16:03;;;;;;;16.42;8.15;;;;;;;-0.15;89.91;99550.41;5011822;28;20030;-73
2021/03/18 00:18:32;;;;;;;12.75;8.05;;;;;;;-0.12;90.51;99544.00;5012822;28;20027;-73
2021/03/18 00:21:00;;;;;;;14.93;8.85;;;;;;;-0.03;90.65;99567.22;5013057;28;20030;-72
2021/03/18 00:23:25;;;;;;;18.10;9.17;;;;;;;-0.07;90.40;99576.41;5013166;28;20109;-73
2021/03/18 00:25:51;;;;;;;16.80;8.35;;;;;;;-0.06;90.25;99575.44;4993156;28;20037;-73
2021/03/18 00:28:16;;;;;;;14.48;8.13;;;;;;;-0.12;91.11;99559.94;5001158;28;20093;-73
2021/03/18 00:30:41;;;;;;;15.30;9.10;;;;;;;0.00;90.86;99567.00;5012596;28;20034;-73
2021/03/18 00:33:07;;;;;;;18.02;8.90;;;;;;;0.01;90.49;99560.72;5031712;28;20029;-73
2021/03/18 00:35:32;;;;;;;16.70;8.07;;;;;;;0.02;90.60;99557.06;5034104;28;20025;-73
2021/03/18 00:37:58;;;;;;;12.98;7.43;;;;;;;0.13;90.15;99550.91;4989672;28;20030;-73
2021/03/18 00:40:32;;;;;;;13.43;7.18;;;;;;;0.27;89.07;99525.91;5004717;28;20033;-73
2021/03/18 00:43:00;;;;;;;10.05;6.57;;;;;;;0.26;88.70;99545.50;5010238;28;20037;-73
2021/03/18 00:45:30;;;;;;;14.43;6.95;;;;;;;0.21;88.65;99545.88;5016982;28;20103;-73
2021/03/18 00:47:56;;;;;;;16.52;7.63;;;;;;;0.06;89.06;99537.25;5013802;28;20074;-73
2021/03/18 00:50:40;;;;;;;13.32;7.05;;;;;;;0.05;89.28;99532.88;5015059;28;20030;-73
2021/03/18 00:53:07;;;;;;;15.75;8.05;;;;;;;0.07;89.60;99538.09;5017354;28;20500;-73
2021/03/18 00:55:32;;;;;;;17.50;8.60;;;;;;;-0.07;89.77;99517.91;5017272;28;20022;-74
2021/03/18 00:57:57;;;;;;;12.85;7.75;;;;;;;-0.08;89.83;99511.72;5024065;28;20026;-73
2021/03/18 01:00:36;;;;;;;13.25;7.60;;;;;;;0.04;89.99;99523.22;5014619;28;20137;-73
2021/03/18 01:03:02;;;;;;;15.30;7.40;;;;;;;0.04;90.43;99528.53;4998186;28;20507;-74
2021/03/18 01:05:45;;;;;;;16.30;8.40;;;;;;;0.00;90.09;99521.78;4998266;28;20037;-73
2021/03/18 01:08:12;;;;;;;17.30;8.43;;;;;;;0.01;90.12;99531.44;5013750;28;20034;-73
2021/03/18 01:10:45;;;;;;;14.18;7.65;;;;;;;-0.03;90.26;99522.00;5007184;28;20069;-73
2021/03/18 01:13:10;;;;;;;14.00;7.35;;;;;;;-0.06;90.36;99532.88;4996863;28;20033;-74
2021/03/18 01:15:37;;;;;;;12.80;7.00;;;;;;;0.06;90.55;99529.28;5009027;28;20033;-74
2021/03/18 01:18:08;;;;;;;12.95;7.43;;;;;;;0.00;90.10;99527.09;5008511;28;20392;-72
2021/03/18 01:20:34;;;;;;;13.13;7.05;;;;;;;-0.02;90.35;99523.72;4998444;28;20116;-73
2021/03/18 01:22:59;;;;;;;16.05;7.10;;;;;;;-0.06;90.58;99519.56;5016174;28;20092;-73
2021/03/18 01:25:25;;;;;;;12.07;7.25;;;;;;;-0.09;90.38;99531.28;4998932;28;20038;-73
2021/03/18 01:27:50;;;;;;;12.65;7.15;;;;;;;-0.14;90.47;99516.66;5018119;28;20092;-73
2021/03/18 01:30:20;;;;;;;10.32;6.43;;;;;;;-0.08;90.19;99524.16;5017123;28;20022;-73
2021/03/18 01:32:45;;;;;;;16.55;7.32;;;;;;;-0.16;90.67;99510.59;5015063;28;20088;-73
2021/03/18 01:35:15;;;;;;;14.68;6.80;;;;;;;-0.07;90.17;99525.88;5014910;28;20042;-74
2021/03/18 01:37:40;;;;;;;14.25;7.47;;;;;;;-0.08;90.37;99519.72;4998321;28;20037;-73
2021/03/18 01:40:08;;;;;;;18.50;7.65;;;;;;;0.05;90.16;99498.31;5011308;28;20030;-73
2021/03/18 01:42:34;;;;;;;12.90;6.88;;;;;;;0.09;88.96;99521.06;5007029;28;20034;-73
2021/03/18 01:44:59;;;;;;;12.95;7.15;;;;;;;0.06;88.95;99517.78;5021395;28;20032;-73
2021/03/18 01:47:24;;;;;;;12.15;7.63;;;;;;;-0.11;89.16;99503.97;5015226;28;20052;-73
2021/03/18 01:49:50;;;;;;;13.98;6.82;;;;;;;-0.05;89.15;99523.94;5003151;28;20501;-73
2021/03/18 01:52:15;;;;;;;12.57;7.10;;;;;;;-0.15;89.50;99512.31;5014234;28;20073;-73
2021/03/18 01:54:40;;;;;;;11.90;7.90;;;;;;;-0.12;89.81;99517.41;5032039;28;20048;-74
2021/03/18 01:57:06;;;;;;;13.30;7.07;;;;;;;-0.04;89.65;99515.00;5014892;28;20108;-73
2021/03/18 01:59:31;;;;;;;10.75;6.43;;;;;;;0.08;89.64;99530.00;5015407;28;20065;-72
2021/03/18 02:01:56;;;;;;;9.32;5.78;;;;;;;0.14;88.70;99532.19;5014845;28;20037;-71
2021/03/18 02:04:22;;;;;;;11.30;5.55;;;;;;;0.13;88.85;99526.97;5013390;28;20037;-72
2021/03/18 02:06:48;;;;;;;9.68;5.32;;;;;;;0.05;88.87;99524.91;5000444;28;20025;-72
2021/03/18 02:09:13;;;;;;;8.13;5.07;;;;;;;0.05;89.24;99521.41;5015349;28;20026;-72
2021/03/18 02:11:39;;;;;;;10.15;5.43;;;;;;;0.03;89.15;99520.66;5014999;28;20029;-72
2021/03/18 02:14:04;;;;;;;9.85;4.97;;;;;;;0.10;89.29;99519.22;5014990;28;20495;-72
2021/03/18 02:16:35;;;;;;;8.25;5.05;;;;;;;0.01;88.97;99528.78;5014521;28;20122;-72
2021/03/18 02:19:23;;;;;;;7.30;4.70;;;;;;;-0.04;89.04;99525.63;5014814;28;20029;-72
2021/03/18 02:22:20;;;;;;;6.90;4.32;;;;;;;-0.09;89.33;99528.63;4994154;28;20041;-72
2021/03/18 02:25:06;;;;;;;10.50;4.72;;;;;;;-0.05;89.27;99527.44;5002674;28;20031;-72
2021/03/18 02:28:22;;;;;;;9.18;5.53;;;;;;;-0.06;89.27;99531.06;5024044;28;20127;-72
2021/03/18 02:30:59;;;;;;;9.85;5.20;;;;;;;-0.01;89.47;99530.72;4987337;28;20052;-71
2021/03/18 02:33:58;;;;;;;8.63;4.82;;;;;;;0.02;89.74;99519.81;5014379;28;20030;-72
2021/03/18 02:37:02;;;;;;;11.20;6.22;;;;;;;-0.02;89.68;99532.53;4993548;28;20046;-71
2021/03/18 02:39:32;;;;;;;9.13;5.75;;;;;;;-0.06;89.53;99532.88;4993111;28;20466;-71
2021/03/18 02:42:02;;;;;;;9.20;5.72;;;;;;;-0.10;89.89;99528.78;5019226;28;20038;-71
2021/03/18 02:44:29;;;;;;;11.60;5.97;;;;;;;-0.12;90.47;99526.22;4996815;28;20516;-72
2021/03/18 02:47:04;;;;;;;12.90;7.65;;;;;;;-0.10;89.94;99539.41;5014203;28;20029;-72
2021/03/18 02:49:33;;;;;;;11.48;6.50;;;;;;;-0.11;90.22;99535.03;5014423;28;20053;-72
2021/03/18 02:52:01;;;;;;;9.48;6.50;;;;;;;-0.09;89.71;99538.44;5024174;28;20035;-72
2021/03/18 02:54:27;;;;;;;9.30;6.00;;;;;;;-0.05;89.53;99537.25;5022570;28;20484;-72
2021/03/18 02:56:57;;;;;;;14.27;6.70;;;;;;;0.05;89.02;99532.88;5023055;28;20029;-71
2021/03/18 02:59:26;;;;;;;11.13;6.63;;;;;;;0.09;88.17;99529.03;5007633;28;20049;-71
2021/03/18 03:01:53;;;;;;;;;;;;;;;0.14;88.23;99537.50;4996418;28;20550;-71
2021/03/18 03:04:19;;;;;;;10.43;5.95;;;;;;;0.14;88.01;99539.31;5013709;28;19909;-71
2021/03/18 03:06:48;;;;;;;12.52;5.35;;;;;;;0.07;87.65;99535.44;5013549;28;20053;-71
2021/03/18 03:09:13;;;;;;;11.65;6.05;;;;;;;0.09;87.74;99531.69;5017631;28;20047;-71
2021/03/18 03:11:41;;;;;;;9.75;6.10;;;;;;;0.04;87.67;99538.34;5032425;28;20112;-73
2021/03/18 03:14:07;;;;;;;11.75;6.47;;;;;;;-0.04;88.42;99530.94;5016763;28;20029;-73
2021/03/18 03:16:33;;;;;;;11.75;5.72;;;;;;;-0.11;88.42;99505.78;5014349;28;20030;-72
2021/03/18 03:19:01;;;;;;;11.60;5.65;;;;;;;0.03;88.68;99532.19;5018636;28;20034;-72
2021/03/18 03:21:27;;;;;;;9.80;5.88;;;;;;;-0.02;88.09;99529.88;5011175;28;20030;-73
2021/03/18 03:23:52;;;;;;;9.80;5.65;;;;;;;0.01;87.90;99536.75;5012789;28;20080;-71
2021/03/18 03:26:21;;;;;;;11.63;6.00;;;;;;;0.08;87.70;99543.31;5014511;28;20029;-72
2021/03/18 03:28:48;;;;;;;12.55;5.68;;;;;;;0.02;87.15;99546.44;5012575;28;20030;-73
2021/03/18 03:31:13;;;;;;;15.35;6.00;;;;;;;-0.01;87.76;99541.34;5000401;28;20105;-72
2021/03/18 03:33:40;;;;;;;12.88;6.13;;;;;;;-0.03;87.74;99541.47;5003863;28;20057;-72
2021/03/18 03:36:07;;;;;;;13.70;5.72;;;;;;;0.00;87.84;99543.06;5012094;28;20025;-72
2021/03/18 03:38:33;;;;;;;14.20;6.07;;;;;;;0.01;87.77;99544.75;5009807;28;20030;-73
2021/03/18 03:40:58;;;;;;;11.55;6.22;;;;;;;0.09;88.02;99547.66;5013865;28;20026;-73
2021/03/18 03:43:24;;;;;;;12.88;6.93;;;;;;;0.14;88.05;99555.28;5010814;28;20030;-73
2021/03/18 03:45:51;;;;;;;12.60;6.95;;;;;;;0.09;88.67;99554.81;5005985;28;20546;-72
2021/03/18 03:48:16;;;;;;;12.35;7.40;;;;;;;0.13;88.34;99553.59;5012047;28;20030;-72
2021/03/18 03:50:42;;;;;;;11.88;6.70;;;;;;;0.10;88.74;99552.00;4997164;28;20026;-72
2021/03/18 03:53:15;;;;;;;15.65;6.25;;;;;;;0.08;89.12;99550.44;4993780;28;20594;-72
2021/03/18 03:55:48;;;;;;;13.77;6.85;;;;;;;0.01;89.04;99549.22;5008047;28;20029;-73
2021/03/18 03:58:41;;;;;;;11.30;7.28;;;;;;;0.00;88.97;99553.72;4996389;28;20500;-73
2021/03/18 04:01:15;;;;;;;9.60;5.97;;;;;;;-0.01;88.81;99552.00;5000855;28;20026;-72
2021/03/18 04:03:43;;;;;;;11.50;5.45;;;;;;;-0.12;87.81;99536.00;5009787;28;20022;-72
2021/03/18 04:06:09;;;;;;;10.82;5.82;;;;;;;-0.07;87.46;99553.31;5000207;28;20041;-73
2021/03/18 04:08:37;;;;;;;9.10;5.72;;;;;;;-0.04;87.31;99557.56;5005689;28;20026;-73
2021/03/18 04:11:03;;;;;;;8.32;4.93;;;;;;;-0.09;87.15;99541.09;5029483;28;20549;-73
2021/03/18 04:13:31;;;;;;;10.18;5.18;;;;;;;-0.02;87.28;99550.31;5014922;28;20072;-72
2021/03/18 04:15:59;;;;;;;8.60;5.40;;;;;;;-0.05;86.75;99554.06;5017881;28;20033;-73
2021/03/18 04:18:35;;;;;;;9.30;5.03;;;;;;;-0.02;86.49;99545.81;5025874;28;20550;-72
2021/03/18 04:21:05;;;;;;;12.02;5.45;;;;;;;-0.04;85.94;99544.25;5007710;28;20034;-71
2021/03/18 04:23:31;;;;;;;11.45;5.90;;;;;;;-0.07;86.14;99541.84;5008295;28;20400;-72
2021/03/18 04:25:58;;;;;;;13.77;6.63;;;;;;;-0.11;87.28;99529.72;5003776;28;20041;-73
2021/03/18 04:28:27;;;;;;;13.68;6.55;;;;;;;-0.03;88.05;99545.94;5017551;28;20036;-71
2021/03/18 04:30:52;;;;;;;13.07;6.30;;;;;;;0.00;88.06;99545.72;5012294;28;20105;-72
2021/03/18 04:33:19;;;;;;;12.02;6.57;;;;;;;-0.12;88.16;99536.00;5008567;28;20050;-72
2021/03/18 04:35:44;;;;;;;10.35;6.03;;;;;;;-0.14;87.97;99530.81;5010460;28;20502;-72
2021/03/18 04:38:11;;;;;;;10.88;6.13;;;;;;;-0.11;88.28;99541.19;5004920;28;20029;-73
2021/03/18 04:40:36;;;;;;;10.27;6.20;;;;;;;-0.06;88.07;99543.50;5015459;28;20040;-73
2021/03/18 04:43:02;;;;;;;12.65;6.30;;;;;;;-0.22;88.16;99506.59;5009790;28;20026;-73
2021/03/18 04:45:30;;;;;;;11.57;5.80;;;;;;;-0.39;87.73;99494.63;5008398;28;20060;-73
2021/03/18 04:47:56;;;;;;;13.25;5.50;;;;;;;-0.12;87.61;99544.00;5007822;28;20026;-73
2021/03/18 04:50:23;;;;;;;11.88;5.78;;;;;;;-0.09;87.82;99546.41;5013922;28;20018;-72
2021/03/18 04:52:50;;;;;;;10.07;6.38;;;;;;;-0.08;87.97;99550.75;5006102;28;20396;-72
2021/03/18 04:55:19;;;;;;;12.15;6.57;;;;;;;-0.11;87.85;99551.00;5003647;28;20041;-71
2021/03/18 04:57:48;;;;;;;14.48;5.90;;;;;;;-0.19;87.19;99537.44;5010254;28;20030;-71
2021/03/18 05:00:16;;;;;;;11.57;5.90;;;;;;;-0.22;86.96;99538.53;4998868;28;20109;-77
2021/03/18 05:02:44;;;;;;;11.32;4.82;;;;;;;-0.01;85.59;99536.03;4997015;28;20060;-76
2021/03/18 05:05:13;;;;;;;9.85;4.95;;;;;;;-0.04;84.57;99546.91;5012897;28;20030;-74
2021/03/18 05:07:38;;;;;;;10.75;5.30;;;;;;;-0.07;85.71;99541.84;5012893;28;20061;-75
2021/03/18 05:10:05;;;;;;;10.75;5.70;;;;;;;-0.06;86.00;99540.84;4991436;28;20429;-76
2021/03/18 05:12:31;;;;;;;8.68;5.07;;;;;;;-0.01;86.10;99544.00;4993003;28;20030;-76
2021/03/18 05:14:57;;;;;;;10.02;5.68;;;;;;;-0.07;86.12;99521.41;4991792;28;20086;-76
2021/03/18 05:17:23;;;;;;;12.38;6.95;;;;;;;0.13;86.39;99519.88;5012625;28;20360;-76
2021/03/18 05:19:48;;;;;;;15.30;9.00;;;;;;;0.06;86.71;99542.59;5019237;28;20109;-77
2021/03/18 05:22:13;;;;;;;16.98;9.93;;;;;;;-0.02;87.26;99524.56;5000344;28;20396;-76
2021/03/18 05:24:41;;;;;;;17.02;10.88;;;;;;;0.03;87.46;99531.31;5013634;28;20030;-74
2021/03/18 05:27:07;;;;;;;19.90;9.25;;;;;;;-0.04;88.12;99539.78;4998302;28;20120;-75
2021/03/18 05:29:33;;;;;;;15.05;8.90;;;;;;;-0.09;88.09;99538.44;5015743;28;20029;-74
2021/03/18 05:31:58;;;;;;;19.63;9.93;;;;;;;-0.16;88.25;99530.06;5016594;28;20026;-77
2021/03/18 05:34:23;;;;;;;19.35;13.07;;;;;;;-0.17;88.06;99527.53;5015797;28;20026;-76
2021/03/18 05:36:49;;;;;;;19.38;10.82;;;;;;;-0.01;87.98;99538.69;5009213;28;20042;-75
2021/03/18 05:39:14;;;;;;;21.30;10.90;;;;;;;-0.20;88.07;99510.00;4996078;28;20494;-77
2021/03/18 05:41:39;;;;;;;15.88;10.20;;;;;;;-0.05;88.15;99529.28;4996499;28;20026;-76
2021/03/18 05:44:06;;;;;;;14.07;8.25;;;;;;;-0.02;88.70;99535.19;4997980;28;20099;-70
2021/03/18 05:46:33;;;;;;;18.55;8.82;;;;;;;-0.02;88.48;99535.19;5017747;28;20028;-74
2021/03/18 05:48:59;;;;;;;13.85;8.50;;;;;;;0.08;88.65;99548.63;4998699;28;20029;-77
2021/03/18 05:51:26;;;;;;;15.45;8.48;;;;;;;0.04;88.63;99541.84;5014672;28;20025;-77
2021/03/18 05:53:51;;;;;;;18.77;8.07;;;;;;;0.06;88.41;99534.59;5001509;28;20030;-78
2021/03/18 05:56:19;;;;;;;13.07;6.97;;;;;;;0.12;88.91;99536.78;5014492;28;20104;-74
2021/03/18 05:58:52;;;;;;;10.70;6.55;;;;;;;0.08;88.69;99538.00;5014845;28;20121;-74
2021/03/18 06:01:18;;;;;;;15.02;5.53;;;;;;;0.07;87.98;99544.25;5006509;28;20028;-72
2021/03/18 06:03:45;;;;;;;8.40;4.65;;;;;;;0.12;88.05;99546.56;5006708;28;20021;-73
2021/03/18 06:06:11;;;;;;;8.63;5.00;;;;;;;0.13;87.55;99548.25;5025216;28;20084;-73
2021/03/18 06:08:38;;;;;;;12.23;5.32;;;;;;;0.05;86.81;99527.56;5008635;28;20036;-79
2021/03/18 06:11:05;;;;;;;11.20;5.82;;;;;;;0.14;85.84;99528.69;4998601;28;20379;-78
2021/03/18 06:13:31;;;;;;;7.63;4.10;;;;;;;0.35;84.00;99540.31;5015421;28;20499;-77
2021/03/18 06:15:57;;;;;;;7.88;4.63;;;;;;;0.33;84.04;99538.75;5014605;28;20022;-75
2021/03/18 06:18:22;;;;;;;9.65;4.72;;;;;;;0.32;84.80;99527.25;5013378;28;20084;-77
2021/03/18 06:20:52;;;;;;;8.43;4.45;;;;;;;0.47;84.61;99540.31;4998384;28;20112;-76
2021/03/18 06:23:17;;;;;;;12.07;4.70;;;;;;;0.52;83.84;99546.97;5016052;28;20026;-74
2021/03/18 06:25:43;;;;;;;7.32;4.43;;;;;;;0.62;84.14;99542.59;5002928;28;20072;-71
2021/03/18 06:28:20;;;;;;;7.55;4.07;;;;;;;0.75;83.21;99549.63;5015251;28;20034;-78
2021/03/18 06:30:55;;;;;;;6.00;4.03;;;;;;;0.71;81.10;99537.50;5013966;28;20033;-75
2021/03/18 06:33:27;;;;;;;7.82;3.25;;;;;;;0.67;79.83;99547.56;5014491;28;20014;-75
2021/03/18 06:35:53;;;;;;;9.40;3.67;;;;;;;0.67;79.56;99534.25;5013675;28;20025;-74
2021/03/18 06:38:26;;;;;;;15.60;7.30;;;;;;;0.73;79.44;99530.25;5011792;28;20149;-75
2021/03/18 06:40:51;;;;;;;8.23;4.38;;;;;;;0.85;79.92;99539.94;4995996;28;20026;-73
2021/03/18 06:43:16;;;;;;;9.60;5.18;;;;;;;0.87;80.46;99533.50;5014502;28;20026;-75
2021/03/18 06:45:44;;;;;;;12.25;6.38;;;;;;;0.85;80.21;99518.63;4996201;28;20056;-76
2021/03/18 06:48:15;;;;;;;11.05;5.38;;;;;;;1.09;79.96;99535.25;4993800;28;20027;-78
2021/03/18 06:50:47;;;;;;;9.05;5.38;;;;;;;1.09;80.27;99529.94;5012113;28;20040;-75
2021/03/18 06:53:39;;;;;;;10.93;5.55;;;;;;;1.23;80.41;99542.16;5004190;28;20026;-75
2021/03/18 06:56:22;;;;;;;10.48;4.72;;;;;;;1.22;80.22;99543.09;4997916;28;20038;-75
2021/03/18 06:58:48;;;;;;;10.73;5.13;;;;;;;1.35;80.55;99550.09;5004456;28;20019;-75
2021/03/18 07:01:13;;;;;;;9.45;5.85;;;;;;;1.45;78.72;99527.06;5014323;28;20025;-76
2021/03/18 07:03:39;;;;;;;9.60;4.88;;;;;;;1.84;78.11;99543.38;5002957;28;20399;-76
2021/03/18 07:06:09;;;;;;;9.10;4.88;;;;;;;2.00;77.16;99541.06;5013635;28;20045;-75
2021/03/18 07:08:37;;;;;;;10.32;4.07;;;;;;;2.18;75.66;99542.19;4993332;28;20022;-77
2021/03/18 07:11:21;;;;;;;9.50;4.53;;;;;;;2.49;74.15;99539.53;5012022;28;20029;-74
2021/03/18 07:13:48;;;;;;;14.38;4.75;;;;;;;2.38;74.53;99529.78;5013911;28;20119;-77
2021/03/18 07:16:14;;;;;;;8.60;4.60;;;;;;;2.64;74.08;99537.31;5008664;28;20050;-75
2021/03/18 07:18:40;;;;;;;6.80;3.97;;;;;;;2.88;74.23;99542.31;5011602;28;20444;-73
2021/03/18 07:21:13;;;;;;;6.78;3.90;;;;;;;3.24;72.89;99540.03;5009775;28;20572;-71
2021/03/18 07:23:43;;;;;;;9.13;4.68;;;;;;;4.52;69.36;99537.94;5012116;28;20025;-73
2021/03/18 07:26:13;;;;;;;8.48;3.40;;;;;;;5.85;64.57;99540.06;5013484;28;20030;-76
2021/03/18 07:28:38;;;;;;;5.57;3.25;;;;;;;7.61;59.60;99536.94;5008638;28;20036;-75
2021/03/18 07:31:04;;;;;;;8.88;4.20;;;;;;;10.22;54.69;99525.31;5010045;28;20101;-77
2021/03/18 07:33:32;;;;;;;7.35;3.45;;;;;;;10.53;50.87;99515.22;4994234;28;20026;-76
2021/03/18 07:35:59;;;;;;;7.35;3.03;;;;;;;12.21;47.08;99518.84;5010717;28;20021;-69
2021/03/18 07:38:24;;;;;;;6.97;3.17;;;;;;;13.58;44.69;99515.41;5012078;28;20040;-73
2021/03/18 07:40:50;;;;;;;4.60;3.10;;;;;;;14.09;42.39;99498.50;4997068;28;20030;-72
2021/03/18 07:43:16;;;;;;;7.00;2.83;;;;;;;12.85;45.15;99499.63;5003044;28;20022;-73
2021/03/18 07:45:42;;;;;;;8.15;3.30;;;;;;;14.28;43.39;99498.72;4992292;28;20049;-74
2021/03/18 07:48:11;;;;;;;7.72;2.80;;;;;;;16.29;40.99;99495.72;5002874;28;20034;-74
2021/03/18 07:50:39;;;;;;;5.15;2.47;;;;;;;15.97;38.35;99516.78;5007283;28;20495;-72
2021/03/18 07:53:10;;;;;;;5.32;2.70;;;;;;;16.23;37.61;99513.03;5012517;28;20572;-75
2021/03/18 07:55:37;;;;;;;4.75;2.42;;;;;;;16.80;38.17;99512.94;5011583;28;20053;-74
2021/03/18 07:58:02;;;;;;;6.93;2.65;;;;;;;14.24;41.30;99511.91;5011273;28;20438;-75
2021/03/18 08:00:31;;;;;;;5.22;2.50;;;;;;;15.73;39.25;99505.63;5010067;28;20034;-74
2021/03/18 08:03:21;;;;;;;4.93;2.87;;;;;;;16.35;38.65;99504.94;5002873;28;20440;-75
2021/03/18 08:05:47;;;;;;;5.32;2.67;;;;;;;15.56;38.63;99508.00;5005053;28;20272;-74
2021/03/18 08:08:45;;;;;;;6.40;2.53;;;;;;;16.04;38.67;99514.03;5010017;28;20048;-72
2021/03/18 08:11:13;;;;;;;4.45;2.40;;;;;;;17.08;37.08;99502.31;4960375;28;20041;-74
2021/03/18 08:13:43;;;;;;;4.72;2.35;;;;;;;15.30;38.60;99513.56;5010743;28;20124;-73
2021/03/18 08:16:29;;;;;;;7.28;2.58;;;;;;;13.06;42.90;99514.13;5011543;28;20033;-72
2021/03/18 08:18:55;;;;;;;5.82;2.80;;;;;;;11.48;45.39;99499.13;5012641;28;20388;-74
2021/03/18 08:21:33;;;;;;;4.45;2.70;;;;;;;10.19;48.81;99513.00;5009773;28;20021;-74
2021/03/18 08:23:59;;;;;;;7.22;3.00;;;;;;;12.55;47.28;99520.75;5007055;28;20034;-74
2021/03/18 08:26:48;;;;;;;5.10;2.95;;;;;;;14.14;42.88;99501.44;5006197;28;20120;-74
2021/03/18 08:29:46;;;;;;;4.63;2.92;;;;;;;14.78;40.58;99499.09;5009825;28;20022;-73
2021/03/18 08:32:29;;;;;;;8.82;2.42;;;;;;;15.18;40.99;99496.25;4974759;28;20042;-74
2021/03/18 08:35:00;;;;;;;6.70;2.70;;;;;;;14.56;41.50;99501.22;5011725;28;20065;-74
2021/03/18 08:37:44;;;;;;;6.57;2.90;;;;;;;15.00;41.09;99486.03;5005644;28;20026;-73
2021/03/18 08:40:18;;;;;;;7.30;2.70;;;;;;;14.71;41.29;99495.56;5011991;28;20061;-74
2021/03/18 08:42:44;;;;;;;5.05;2.42;;;;;;;14.89;40.43;99488.38;5005188;28;20057;-74
2021/03/18 08:45:11;;;;;;;4.82;2.63;;;;;;;15.75;40.32;99489.88;5010916;28;20064;-72
2021/03/18 08:47:40;;;;;;;5.22;2.80;;;;;;;16.21;39.54;99488.66;5011169;28;20076;-75
2021/03/18 08:50:31;;;;;;;5.35;2.85;;;;;;;16.14;39.17;99476.16;5011575;28;20025;-75
2021/03/18 08:52:57;;;;;;;8.95;2.72;;;;;;;15.62;40.60;99487.19;5007846;28;20049;-71
2021/03/18 08:55:44;;;;;;;5.60;2.55;;;;;;;16.77;38.92;99469.66;5004007;28;20026;-75
2021/03/18 08:58:11;;;;;;;6.00;2.50;;;;;;;16.69;38.80;99476.25;5009619;28;20104;-75
2021/03/18 09:00:37;;;;;;;5.18;2.35;;;;;;;19.76;35.54;99461.00;5015392;28;20109;-75
2021/03/18 09:03:04;;;;;;;6.78;2.70;;;;;;;20.85;32.89;99448.69;5003526;28;20148;-74
2021/03/18 09:05:30;;;;;;;4.10;2.47;;;;;;;21.76;31.73;99459.13;5014807;28;20502;-74
2021/03/18 09:08:01;;;;;;;4.82;2.83;;;;;;;20.69;31.55;99453.97;5015690;28;20116;-74
2021/03/18 09:10:29;;;;;;;6.22;2.95;;;;;;;15.98;38.60;99456.53;5019798;28;20021;-74
2021/03/18 09:13:03;;;;;;;4.68;2.63;;;;;;;14.40;43.34;99475.25;5011064;28;20027;-74
2021/03/18 09:15:34;;;;;;;7.38;3.20;;;;;;;13.15;44.47;99472.16;5011688;28;20111;-75
2021/03/18 09:18:12;;;;;;;6.30;3.03;;;;;;;11.83;46.31;99468.41;5007916;28;20029;-74
2021/03/18 09:20:38;;;;;;;6.63;3.30;;;;;;;11.44;49.15;99468.84;5003291;28;20026;-75
2021/03/18 09:23:35;;;;;;;11.07;3.42;;;;;;;10.88;49.57;99464.06;5012959;28;20497;-74
2021/03/18 09:26:04;;;;;;;7.13;2.90;;;;;;;9.34;51.10;99465.38;5003545;28;20038;-74
2021/03/18 09:28:33;;;;;;;;;;;;;;;9.43;52.97;99468.84;5016419;28;20048;-76
2021/03/18 09:30:58;;;;;;;5.22;3.20;;;;;;;9.05;51.90;99463.38;5007716;28;20331;-75
2021/03/18 09:33:39;;;;;;;10.10;3.28;;;;;;;8.69;54.39;99471.13;5004084;28;20029;-77
2021/03/18 09:36:14;;;;;;;6.75;3.22;;;;;;;8.39;55.34;99464.63;4995406;28;20022;-74
2021/03/18 09:38:40;;;;;;;11.45;3.90;;;;;;;10.01;51.80;99458.44;4997235;28;20030;-72
2021/03/18 09:41:06;;;;;;;7.13;3.80;;;;;;;10.56;49.29;99454.50;5005636;28;20041;-74
2021/03/18 09:43:33;;;;;;;5.55;3.65;;;;;;;10.90;46.79;99448.47;5013980;28;20411;-74
2021/03/18 09:46:04;;;;;;;5.43;3.60;;;;;;;13.49;42.20;99443.22;5016067;28;20030;-75
2021/03/18 09:48:35;;;;;;;7.40;3.42;;;;;;;13.63;40.19;99441.38;5015267;28;20021;-72
2021/03/18 09:51:12;;;;;;;5.38;3.30;;;;;;;16.17;36.59;99434.75;5013225;28;20020;-70
2021/03/18 09:53:40;;;;;;;9.05;3.30;;;;;;;16.52;36.64;99426.81;5011321;28;20096;-74
2021/03/18 09:56:14;;;;;;;6.13;2.90;;;;;;;17.54;34.50;99431.63;5008511;28;20026;-72
2021/03/18 09:58:40;;;;;;;5.07;3.00;;;;;;;18.62;33.79;99422.22;5014340;28;20037;-73
2021/03/18 10:01:25;;;;;;;5.68;2.72;;;;;;;19.10;33.93;99405.66;5006678;28;20389;-75
2021/03/18 10:03:56;;;;;;;6.22;3.05;;;;;;;17.84;34.73;99426.16;5007249;28;20033;-74
2021/03/18 10:06:38;;;;;;;4.75;2.95;;;;;;;17.44;36.75;99426.72;5010533;28;20018;-73
2021/03/18 10:09:14;;;;;;;5.47;2.30;;;;;;;19.49;34.80;99415.78;4999729;28;20388;-75
2021/03/18 10:11:40;;;;;;;4.47;2.83;;;;;;;18.82;35.07;99407.31;4997113;28;20022;-75
2021/03/18 10:14:06;;;;;;;7.75;2.53;;;;;;;19.66;32.83;99409.47;4991814;28;20030;-73
2021/03/18 10:16:33;;;;;;;5.70;2.90;;;;;;;19.85;31.31;99402.66;5006233;28;20025;-76
2021/03/18 10:19:00;;;;;;;5.78;2.80;;;;;;;19.91;31.80;99409.94;5004329;28;20076;-74
2021/03/18 10:21:26;;;;;;;3.63;2.50;;;;;;;19.82;31.36;99396.84;5001923;28;20843;-73
2021/03/18 10:23:51;;;;;;;5.35;2.72;;;;;;;17.26;34.61;99408.47;5013336;28;20037;-72
2021/03/18 10:26:24;;;;;;;6.35;2.78;;;;;;;18.19;33.71;99397.97;5011301;28;20033;-76
2021/03/18 10:28:58;;;;;;;5.75;3.10;;;;;;;16.48;35.73;99401.03;5003543;28;20511;-76
2021/03/18 10:31:23;;;;;;;5.20;2.90;;;;;;;15.86;39.07;99398.28;5003926;28;20495;-74
2021/03/18 10:33:48;;;;;;;6.55;2.83;;;;;;;14.53;39.98;99403.63;4989506;28;20029;-74
2021/03/18 10:36:14;;;;;;;5.93;3.15;;;;;;;12.73;43.36;99406.19;5005118;28;20021;-72
2021/03/18 10:38:41;;;;;;;6.57;3.13;;;;;;;11.34;45.99;99401.47;5013823;28;20487;-75
2021/03/18 10:41:14;;;;;;;6.35;2.95;;;;;;;10.72;47.64;99407.44;5008889;28;20064;-74
2021/03/18 10:43:47;;;;;;;4.40;2.90;;;;;;;10.46;47.39;99386.31;5008031;28;20465;-74
2021/03/18 10:46:16;;;;;;;7.82;3.42;;;;;;;12.68;42.77;99392.38;5011122;28;20034;-73
2021/03/18 10:48:46;;;;;;;4.95;3.15;;;;;;;14.23;39.73;99383.16;5013656;28;20057;-71
2021/03/18 10:51:14;;;;;;;7.93;3.55;;;;;;;14.43;39.37;99374.09;5009990;28;20519;-74
2021/03/18 10:53:41;;;;;;;9.40;3.03;;;;;;;15.25;38.71;99382.56;5012892;28;20035;-74
2021/03/18 10:56:12;;;;;;;7.53;3.90;;;;;;;14.82;39.18;99384.03;4997133;28;20492;-76
2021/03/18 10:58:38;;;;;;;5.72;3.35;;;;;;;13.15;41.35;99385.22;4994758;28;20564;-71
2021/03/18 11:01:07;;;;;;;5.75;2.85;;;;;;;13.47;42.57;99377.38;5008103;28;20030;-73
2021/03/18 11:03:35;;;;;;;5.45;3.30;;;;;;;12.49;42.92;99380.41;5008739;28;20017;-75
2021/03/18 11:06:15;;;;;;;5.70;3.53;;;;;;;11.53;45.00;99374.75;5000467;28;20034;-75
2021/03/18 11:08:44;;;;;;;5.97;3.72;;;;;;;10.60;46.90;99384.59;5000890;28;20387;-72
2021/03/18 11:11:18;;;;;;;5.68;2.95;;;;;;;10.47;46.55;99385.25;5013969;28;20028;-73
2021/03/18 11:13:44;;;;;;;7.22;3.40;;;;;;;9.42;47.86;99373.50;4995917;28;20033;-73
2021/03/18 11:16:12;;;;;;;5.97;3.13;;;;;;;8.84;50.27;99388.41;5012921;28;20030;-75
2021/03/18 11:18:45;;;;;;;5.45;3.00;;;;;;;8.57;48.40;99381.66;5013956;28;20550;-74
2021/03/18 11:21:32;;;;;;;6.32;3.03;;;;;;;8.38;51.10;99388.28;5000339;28;20634;-69
2021/03/18 11:24:17;;;;;;;7.28;2.58;;;;;;;8.12;50.42;99381.31;4994582;28;20484;-69
2021/03/18 11:26:53;;;;;;;10.35;2.95;;;;;;;8.31;50.46;99358.50;4994917;28;20026;-70
2021/03/18 11:29:22;;;;;;;6.65;2.20;;;;;;;8.66;49.43;99374.38;5022647;28;20036;-69
2021/03/18 11:31:52;;;;;;;4.43;2.63;;;;;;;8.73;50.53;99369.94;5011426;28;20018;-69
2021/03/18 11:34:20;;;;;;;5.60;2.83;;;;;;;8.76;51.29;99366.91;5008648;28;20384;-69
2021/03/18 11:36:49;;;;;;;6.30;2.95;;;;;;;9.13;48.68;99366.13;4991648;28;20108;-68
2021/03/18 11:39:18;;;;;;;10.05;3.22;;;;;;;9.39;46.74;99364.91;5008123;28;20036;-70
2021/03/18 11:41:45;;;;;;;4.38;2.78;;;;;;;9.76;48.09;99365.94;5013277;28;20036;-69
2021/03/18 11:44:10;;;;;;;5.18;3.08;;;;;;;9.80;49.23;99370.78;5008182;28;20026;-69
2021/03/18 11:46:36;;;;;;;5.63;2.92;;;;;;;10.18;48.13;99357.19;5002175;28;20109;-69